Time;durP1;ratioP1;P1;durP2;ratioP2;P2;SDS_P1;SDS_P2;PMS_P1;PMS_P2;Temp;Humidity;BMP_temperature;BMP_pressure;BME280_temperature;BME280_humidity;BME280_pressure;Samples;Min_cycle;Max_cycle;Signal;HPM_P1;HPM_P2
2023/05/18 00:01:13;;;;;;;10.57;3.30;;;;;;;18.30;63.56;101052.91;5040513;28;20561;-42
2023/05/18 00:03:40;;;;;;;8.65;3.60;;;;;;;18.35;63.01;101050.25;5031889;28;20079;-46
2023/05/18 00:06:06;;;;;;;8.13;3.65;;;;;;;17.74;64.14;101063.78;5031632;28;20029;-42
2023/05/18 00:08:36;;;;;;;7.88;3.00;;;;;;;17.52;65.39;101043.94;5032010;28;20037;-45
2023/05/18 00:11:04;;;;;;;8.63;3.67;;;;;;;17.42;65.67;101063.53;5031975;28;20021;-44
2023/05/18 00:13:30;;;;;;;11.02;3.75;;;;;;;17.32;66.95;101056.09;5031777;28;20179;-44
2023/05/18 00:15:57;;;;;;;8.82;3.13;;;;;;;17.45;67.62;101052.22;5031588;28;20057;-44
2023/05/18 00:18:25;;;;;;;9.60;3.42;;;;;;;17.05;67.85;101047.78;5031876;28;20026;-43
2023/05/18 00:20:57;;;;;;;10.93;3.60;;;;;;;17.02;67.72;101044.72;5031509;28;20052;-42
2023/05/18 00:23:31;;;;;;;8.13;3.78;;;;;;;17.19;68.30;101052.88;5031965;28;20067;-42
2023/05/18 00:25:59;;;;;;;8.53;3.70;;;;;;;17.22;67.34;101052.38;5031495;28;20371;-42
2023/05/18 00:28:25;;;;;;;7.57;3.50;;;;;;;17.06;67.71;101048.59;5047957;28;20439;-43
2023/05/18 00:30:53;;;;;;;10.55;3.78;;;;;;;17.19;68.14;101045.56;5051569;28;20021;-43
2023/05/18 00:33:19;;;;;;;9.80;3.45;;;;;;;17.25;67.60;101038.34;5051655;28;20550;-44
2023/05/18 00:35:45;;;;;;;9.10;3.78;;;;;;;17.21;67.99;101046.13;5051198;28;20033;-46
2023/05/18 00:38:11;;;;;;;10.45;3.67;;;;;;;17.42;67.43;101041.88;5051663;28;20335;-43
2023/05/18 00:40:41;;;;;;;9.98;4.00;;;;;;;17.48;66.78;101043.59;5042199;28;20036;-44
2023/05/18 00:43:08;;;;;;;8.52;3.45;;;;;;;17.37;67.74;101039.91;5031839;28;20029;-44
2023/05/18 00:45:34;;;;;;;10.52;4.25;;;;;;;17.33;68.94;101046.91;5031825;28;20100;-44
2023/05/18 00:48:00;;;;;;;10.10;4.22;;;;;;;17.14;68.68;101050.88;5050649;28;20394;-44
2023/05/18 00:50:27;;;;;;;11.50;4.40;;;;;;;17.14;69.09;101045.47;5050282;28;20025;-47
2023/05/18 00:52:53;;;;;;;8.27;4.15;;;;;;;17.39;68.99;101043.22;5050963;28;20534;-43
2023/05/18 00:55:20;;;;;;;10.15;4.00;;;;;;;17.20;68.50;101044.50;5050990;28;20037;-40
2023/05/18 00:57:46;;;;;;;7.45;3.95;;;;;;;17.01;69.78;101043.09;5051610;28;20025;-40
2023/05/18 01:00:14;;;;;;;15.35;4.75;;;;;;;17.10;69.84;101039.75;5050106;28;20539;-42
2023/05/18 01:02:44;;;;;;;9.02;3.80;;;;;;;17.28;68.88;101040.59;5049832;28;20034;-41
2023/05/18 01:05:12;;;;;;;23.58;4.25;;;;;;;16.86;69.96;101035.53;5051002;28;20025;-43
2023/05/18 01:07:41;;;;;;;9.15;3.63;;;;;;;16.90;70.09;101042.09;5043477;28;20497;-43
2023/05/18 01:10:12;;;;;;;10.85;3.90;;;;;;;17.11;70.49;101041.41;5044388;28;20427;-46
2023/05/18 01:12:49;;;;;;;11.27;4.05;;;;;;;16.81;70.02;101046.25;5045431;28;20029;-40
2023/05/18 01:15:19;;;;;;;6.82;3.42;;;;;;;17.17;69.95;101039.59;5034473;28;20030;-42
2023/05/18 01:18:13;;;;;;;8.07;3.75;;;;;;;17.08;69.70;101051.88;5037895;28;20029;-41
2023/05/18 01:20:59;;;;;;;9.88;4.05;;;;;;;16.96;70.54;101049.22;5047576;28;20127;-46
2023/05/18 01:24:02;;;;;;;11.73;3.30;;;;;;;16.89;70.77;101057.50;5052068;28;20111;-45
2023/05/18 01:26:36;;;;;;;12.05;4.15;;;;;;;16.71;71.32;101056.84;5045761;28;20861;-45
2023/05/18 01:29:10;;;;;;;11.07;4.63;;;;;;;16.91;70.78;101054.53;5054941;28;20111;-47
2023/05/18 01:31:36;;;;;;;11.88;3.58;;;;;;;16.87;70.44;101047.97;5058666;23;20524;-47
2023/05/18 01:34:03;;;;;;;11.93;4.07;;;;;;;16.41;72.22;101052.47;5072222;28;20020;-47
2023/05/18 01:36:30;;;;;;;10.38;3.67;;;;;;;16.55;72.03;101040.34;5054706;28;20036;-47
2023/05/18 01:39:00;;;;;;;12.10;4.90;;;;;;;16.21;72.67;101035.84;5075412;28;20107;-46
2023/05/18 01:41:33;;;;;;;10.82;4.50;;;;;;;16.17;73.63;101034.69;5062498;28;20050;-47
2023/05/18 01:44:18;;;;;;;15.45;5.00;;;;;;;16.13;73.84;101033.53;5074916;28;20056;-44
2023/05/18 01:46:58;;;;;;;12.85;4.00;;;;;;;16.43;72.39;101023.31;5055871;28;20037;-47
2023/05/18 01:49:56;;;;;;;8.32;4.20;;;;;;;16.16;73.43;101023.06;5064076;28;20032;-48
2023/05/18 01:52:31;;;;;;;11.00;3.60;;;;;;;16.71;72.28;101019.00;5067798;28;20087;-44
2023/05/18 01:55:02;;;;;;;13.05;4.07;;;;;;;16.53;71.06;101017.31;5061890;28;20025;-48
2023/05/18 01:57:30;;;;;;;9.93;4.22;;;;;;;16.68;70.50;101024.91;5054606;28;20025;-44
2023/05/18 02:00:01;;;;;;;12.20;4.20;;;;;;;16.58;70.35;101020.94;5055337;28;20075;-47
2023/05/18 02:02:27;;;;;;;9.15;3.88;;;;;;;16.63;70.13;101015.63;5058932;28;20108;-45
2023/05/18 02:04:54;;;;;;;16.48;4.45;;;;;;;16.87;69.65;101002.81;5054441;28;20036;-46
2023/05/18 02:07:21;;;;;;;13.52;3.80;;;;;;;16.49;70.58;101008.88;5054627;28;20361;-47
2023/05/18 02:09:47;;;;;;;13.07;4.05;;;;;;;16.56;70.24;101017.66;5070049;28;20040;-48
2023/05/18 02:12:13;;;;;;;10.45;3.60;;;;;;;16.66;70.12;101016.19;5074615;28;20024;-44
2023/05/18 02:14:40;;;;;;;11.75;4.10;;;;;;;16.72;70.11;101016.09;5081472;28;20466;-48
2023/05/18 02:17:06;;;;;;;9.88;3.97;;;;;;;16.63;69.99;101001.28;5094512;28;20507;-45
2023/05/18 02:19:36;;;;;;;11.48;3.45;;;;;;;16.92;69.02;101014.81;5094629;28;20035;-44
2023/05/18 02:22:06;;;;;;;7.78;3.55;;;;;;;16.78;69.57;101008.91;5058591;28;20543;-48
2023/05/18 02:24:33;;;;;;;9.90;3.67;;;;;;;16.92;68.02;101004.81;5053941;28;20489;-45
2023/05/18 02:27:00;;;;;;;9.77;3.97;;;;;;;16.60;69.03;101008.00;5054008;28;20040;-49
2023/05/18 02:29:26;;;;;;;11.25;4.47;;;;;;;16.51;69.75;101009.44;5056128;28;20465;-48
2023/05/18 02:31:53;;;;;;;10.93;4.05;;;;;;;16.99;68.18;101000.09;5071639;28;20055;-46
2023/05/18 02:34:20;;;;;;;13.38;4.15;;;;;;;16.64;69.76;101003.75;5073161;28;20025;-46
2023/05/18 02:36:47;;;;;;;11.15;4.78;;;;;;;16.48;69.91;101011.81;5065641;28;20112;-46
2023/05/18 02:39:13;;;;;;;9.85;3.92;;;;;;;16.56;69.57;101014.94;5053553;28;20028;-44
2023/05/18 02:41:40;;;;;;;11.65;4.65;;;;;;;16.17;71.32;101013.09;5054015;28;20049;-44
2023/05/18 02:44:06;;;;;;;10.82;4.85;;;;;;;15.68;73.02;101017.97;5053299;28;20021;-44
2023/05/18 02:46:32;;;;;;;8.48;4.10;;;;;;;15.39;74.58;101023.22;5070707;28;20024;-44
2023/05/18 02:48:59;;;;;;;12.73;4.68;;;;;;;15.21;75.83;101021.44;5073172;28;20579;-45
2023/05/18 02:51:25;;;;;;;11.02;5.68;;;;;;;14.75;77.34;101014.03;5073787;28;20495;-48
2023/05/18 02:53:51;;;;;;;13.27;5.00;;;;;;;14.57;78.63;101019.47;5071257;28;20517;-46
2023/05/18 02:56:18;;;;;;;13.20;5.03;;;;;;;14.57;79.17;101016.78;5073477;28;20372;-46
2023/05/18 02:58:44;;;;;;;13.60;5.55;;;;;;;14.28;80.53;101016.50;5073324;28;20028;-49
2023/05/18 03:01:13;;;;;;;13.20;5.07;;;;;;;14.08;81.17;101027.50;5072457;28;20028;-45
2023/05/18 03:03:42;;;;;;;9.23;5.03;;;;;;;14.11;81.26;101037.00;5073423;28;20063;-42
2023/05/18 03:06:09;;;;;;;10.02;5.05;;;;;;;14.25;81.00;101038.47;5072583;28;20509;-45
2023/05/18 03:08:39;;;;;;;10.30;4.40;;;;;;;14.19;80.83;101042.91;5070728;28;20028;-43
2023/05/18 03:11:06;;;;;;;10.48;5.00;;;;;;;14.05;81.87;101037.88;5052975;28;20034;-44
2023/05/18 03:13:32;;;;;;;11.63;5.38;;;;;;;13.72;83.28;101045.28;5052842;28;20029;-45
2023/05/18 03:15:58;;;;;;;8.57;5.70;;;;;;;13.71;83.69;101048.16;5052580;28;20112;-45
2023/05/18 03:18:25;;;;;;;16.80;6.07;;;;;;;13.70;83.98;101050.03;5059658;23;20157;-43
2023/05/18 03:20:51;;;;;;;14.30;5.72;;;;;;;13.70;84.13;101059.97;5024000;28;20041;-45
2023/05/18 03:23:20;;;;;;;12.23;5.43;;;;;;;13.67;84.35;101063.94;5013319;28;20049;-43
2023/05/18 03:25:52;;;;;;;16.48;5.45;;;;;;;13.43;85.26;101057.50;5013658;28;20156;-42
2023/05/18 03:28:19;;;;;;;11.27;5.25;;;;;;;13.57;85.28;101062.78;5017821;28;20543;-44
2023/05/18 03:30:45;;;;;;;14.75;5.30;;;;;;;13.28;86.63;101059.72;5032541;28;20033;-46
2023/05/18 03:33:12;;;;;;;14.70;5.88;;;;;;;13.26;86.93;101056.41;5032013;28;20393;-45
2023/05/18 03:35:40;;;;;;;14.63;5.90;;;;;;;13.13;87.55;101067.22;5032111;28;20026;-46
2023/05/18 03:38:07;;;;;;;17.10;6.05;;;;;;;13.13;87.65;101060.00;5032446;28;20446;-44
2023/05/18 03:40:33;;;;;;;10.52;5.57;;;;;;;13.23;87.16;101059.53;5032192;28;20371;-48
2023/05/18 03:43:00;;;;;;;14.07;6.25;;;;;;;13.17;87.43;101063.06;5032407;28;20029;-48
2023/05/18 03:45:26;;;;;;;13.27;5.53;;;;;;;13.11;88.04;101064.78;5024097;28;20025;-44
2023/05/18 03:47:52;;;;;;;21.38;5.57;;;;;;;13.04;88.86;101063.16;5012456;28;20034;-43
2023/05/18 03:50:20;;;;;;;20.58;5.82;;;;;;;13.16;88.05;101073.00;5012991;28;20052;-47
2023/05/18 03:52:46;;;;;;;12.15;6.00;;;;;;;13.07;88.24;101078.84;5012498;28;20030;-44
2023/05/18 03:55:12;;;;;;;11.07;5.55;;;;;;;13.27;87.24;101079.59;5023331;28;20025;-46
2023/05/18 03:57:38;;;;;;;15.48;5.55;;;;;;;13.16;87.78;101083.75;5044275;28;20501;-46
2023/05/18 04:00:10;;;;;;;12.48;5.40;;;;;;;13.23;87.25;101085.59;5031985;28;20107;-44
2023/05/18 04:02:38;;;;;;;14.15;6.18;;;;;;;13.12;87.78;101081.72;5032206;28;20044;-43
2023/05/18 04:05:05;;;;;;;11.80;5.05;;;;;;;13.13;87.29;101094.94;5016630;28;20097;-46
2023/05/18 04:07:31;;;;;;;10.55;5.00;;;;;;;13.02;88.38;101086.72;5005679;28;20022;-43
2023/05/18 04:09:57;;;;;;;12.70;5.65;;;;;;;13.06;88.05;101087.97;5004129;28;20026;-46
2023/05/18 04:12:23;;;;;;;14.52;5.53;;;;;;;12.97;88.69;101090.06;5001428;28;20040;-44
2023/05/18 04:14:50;;;;;;;13.75;5.68;;;;;;;13.02;88.16;101086.72;4995005;28;21053;-45
2023/05/18 04:17:20;;;;;;;13.52;5.68;;;;;;;12.95;88.56;101086.78;5010323;28;20474;-43
2023/05/18 04:19:50;;;;;;;14.70;6.00;;;;;;;12.86;88.55;101094.25;5011736;28;20407;-43
2023/05/18 04:22:17;;;;;;;10.38;5.32;;;;;;;12.76;88.95;101093.88;5012241;28;20061;-43
2023/05/18 04:24:46;;;;;;;18.95;6.25;;;;;;;12.69;89.17;101099.28;5011944;28;20041;-43
2023/05/18 04:27:13;;;;;;;15.18;6.20;;;;;;;12.66;89.39;101098.91;5012217;28;20030;-44
2023/05/18 04:29:39;;;;;;;13.95;6.05;;;;;;;12.77;88.53;101106.31;5012277;28;20544;-45
2023/05/18 04:32:06;;;;;;;10.35;5.78;;;;;;;12.64;89.21;101111.72;5001097;28;20019;-43
2023/05/18 04:34:36;;;;;;;16.80;5.90;;;;;;;12.64;89.32;101117.09;4992382;28;20411;-47
2023/05/18 04:37:06;;;;;;;13.23;5.75;;;;;;;12.64;89.35;101119.78;4992844;28;20392;-45
2023/05/18 04:39:33;;;;;;;16.65;5.90;;;;;;;12.63;89.48;101118.13;4992681;28;20054;-46
2023/05/18 04:42:00;;;;;;;10.60;5.82;;;;;;;12.59;89.60;101120.41;4992649;28;20026;-45
2023/05/18 04:44:28;;;;;;;15.77;6.07;;;;;;;12.61;89.06;101122.91;5005378;28;20026;-43
2023/05/18 04:46:55;;;;;;;15.98;6.25;;;;;;;12.54;89.31;101125.56;5016371;28;20053;-45
2023/05/18 04:49:22;;;;;;;13.65;5.28;;;;;;;12.58;88.87;101120.63;5016886;28;20025;-45
2023/05/18 04:51:49;;;;;;;12.00;5.32;;;;;;;12.52;89.16;101132.22;5016515;28;20065;-45
2023/05/18 04:54:15;;;;;;;14.90;5.38;;;;;;;12.41;89.74;101131.81;5016161;28;20068;-43
2023/05/18 04:56:42;;;;;;;11.90;6.68;;;;;;;12.51;89.87;101133.25;5013420;28;20033;-44
2023/05/18 04:59:09;;;;;;;15.80;6.88;;;;;;;12.48;90.06;101139.84;5015332;28;20022;-44
2023/05/18 05:01:35;;;;;;;12.57;6.75;;;;;;;12.53;89.94;101141.91;5015431;28;20026;-43
2023/05/18 05:04:02;;;;;;;15.32;6.47;;;;;;;12.64;89.69;101144.75;5014804;28;20037;-43
2023/05/18 05:06:28;;;;;;;18.67;6.78;;;;;;;12.56;90.10;101155.75;4998033;28;20026;-43
2023/05/18 05:08:55;;;;;;;15.25;6.53;;;;;;;12.46;90.33;101151.84;5015299;28;20026;-44
2023/05/18 05:11:21;;;;;;;15.65;6.40;;;;;;;12.55;89.60;101147.91;5015656;28;20026;-45
2023/05/18 05:13:47;;;;;;;16.80;6.20;;;;;;;12.47;90.36;101145.44;5011095;28;20030;-44
2023/05/18 05:16:13;;;;;;;19.75;7.07;;;;;;;12.50;90.31;101142.34;4995372;28;20081;-44
2023/05/18 05:18:40;;;;;;;12.75;5.47;;;;;;;12.55;89.77;101155.97;4994504;28;20102;-44
2023/05/18 05:21:06;;;;;;;12.02;5.78;;;;;;;12.42;90.31;101152.25;5023749;28;20079;-44
2023/05/18 05:23:32;;;;;;;17.45;5.75;;;;;;;12.46;89.83;101150.00;5035106;28;20112;-46
2023/05/18 05:25:58;;;;;;;17.73;5.75;;;;;;;12.40;89.76;101148.16;5024866;28;20033;-44
2023/05/18 05:28:25;;;;;;;14.80;5.85;;;;;;;12.42;89.87;101146.88;5014723;28;20057;-45
2023/05/18 05:30:51;;;;;;;15.57;5.68;;;;;;;12.32;90.33;101151.88;5015010;28;20061;-44
2023/05/18 05:33:18;;;;;;;19.17;6.05;;;;;;;12.50;89.49;101145.84;5008155;28;20049;-47
2023/05/18 05:35:44;;;;;;;14.45;5.97;;;;;;;12.53;88.75;101156.16;4994965;28;20038;-44
2023/05/18 05:38:10;;;;;;;14.30;5.90;;;;;;;12.53;89.04;101148.09;4995355;28;20041;-44
2023/05/18 05:40:37;;;;;;;13.20;5.30;;;;;;;12.54;89.12;101159.66;4995591;28;20105;-43
2023/05/18 05:43:05;;;;;;;14.60;5.25;;;;;;;12.37;90.17;101144.00;4995399;28;20049;-45
2023/05/18 05:45:31;;;;;;;14.85;5.40;;;;;;;12.48;89.95;101144.41;5002307;28;20054;-46
2023/05/18 05:47:57;;;;;;;14.13;5.05;;;;;;;12.52;89.42;101145.63;5014584;28;20021;-45
2023/05/18 05:50:23;;;;;;;10.70;4.90;;;;;;;12.56;88.54;101145.00;5000420;28;20021;-47
2023/05/18 05:52:50;;;;;;;10.73;5.35;;;;;;;12.57;88.33;101148.50;5013445;28;20164;-43
2023/05/18 05:55:16;;;;;;;13.07;5.20;;;;;;;12.60;87.28;101137.34;5014074;28;20064;-43
2023/05/18 05:57:42;;;;;;;11.90;4.78;;;;;;;12.51;87.86;101146.69;4981017;28;20041;-46
2023/05/18 06:00:10;;;;;;;14.98;5.63;;;;;;;12.60;87.95;101145.38;5013234;28;20022;-45
2023/05/18 06:02:37;;;;;;;13.98;4.75;;;;;;;12.60;88.34;101148.94;5000749;28;20143;-44
2023/05/18 06:05:06;;;;;;;13.27;5.13;;;;;;;12.62;88.55;101149.53;5013883;28;20065;-44
2023/05/18 06:07:35;;;;;;;11.00;5.15;;;;;;;12.69;88.26;101136.06;5014434;28;20053;-43
2023/05/18 06:10:02;;;;;;;11.57;4.93;;;;;;;12.65;88.08;101141.03;5008565;28;20036;-45
2023/05/18 06:12:28;;;;;;;18.00;5.72;;;;;;;12.51;88.99;101135.94;5014124;28;20394;-43
2023/05/18 06:14:58;;;;;;;12.25;5.13;;;;;;;12.64;88.25;101136.69;5008503;28;20577;-42
2023/05/18 06:17:25;;;;;;;14.70;5.50;;;;;;;12.64;88.64;101138.56;5014469;28;20037;-43
2023/05/18 06:19:53;;;;;;;10.13;5.13;;;;;;;12.47;88.82;101143.59;5014123;28;20511;-45
2023/05/18 06:22:20;;;;;;;14.75;5.10;;;;;;;12.42;89.30;101138.84;5000501;28;20493;-44
2023/05/18 06:24:46;;;;;;;14.48;5.63;;;;;;;12.44;88.69;101144.03;5007051;28;20032;-42
2023/05/18 06:27:12;;;;;;;10.98;5.50;;;;;;;12.36;88.62;101139.69;5005037;28;20038;-44
2023/05/18 06:29:38;;;;;;;14.82;6.07;;;;;;;12.50;88.02;101136.97;4997835;28;20018;-44
2023/05/18 06:32:05;;;;;;;16.30;5.47;;;;;;;12.52;88.35;101140.25;5004993;28;20137;-46
2023/05/18 06:34:31;;;;;;;11.73;5.43;;;;;;;12.52;88.11;101140.25;4994312;28;20061;-44
2023/05/18 06:36:58;;;;;;;10.55;5.32;;;;;;;12.46;87.45;101133.06;5007981;28;20029;-44
2023/05/18 06:39:25;;;;;;;13.57;5.50;;;;;;;12.41;87.39;101123.78;5013873;28;20029;-43
2023/05/18 06:41:51;;;;;;;11.23;5.38;;;;;;;12.46;87.24;101125.00;5010334;28;20022;-44
2023/05/18 06:44:17;;;;;;;11.73;6.05;;;;;;;12.37;88.08;101127.91;4993977;28;20081;-44
2023/05/18 06:46:44;;;;;;;19.67;6.45;;;;;;;12.30;88.96;101121.75;4993999;28;20049;-45
2023/05/18 06:49:11;;;;;;;16.25;5.65;;;;;;;12.31;88.83;101125.25;4994153;28;20042;-43
2023/05/18 06:51:37;;;;;;;12.52;5.13;;;;;;;12.34;88.19;101119.47;5009553;28;20034;-43
2023/05/18 06:54:03;;;;;;;12.93;5.25;;;;;;;12.23;89.23;101122.81;5013353;28;20026;-45
2023/05/18 06:56:29;;;;;;;12.25;5.75;;;;;;;12.33;89.01;101120.50;5013374;28;20058;-46
2023/05/18 06:58:56;;;;;;;16.20;5.82;;;;;;;12.30;89.35;101127.09;5013480;28;20387;-44
2023/05/18 07:01:22;;;;;;;18.15;6.05;;;;;;;12.28;88.73;101129.19;5012752;28;20033;-44
2023/05/18 07:03:48;;;;;;;10.32;5.10;;;;;;;12.28;88.47;101131.88;5013388;28;20514;-43
2023/05/18 07:06:15;;;;;;;14.38;4.95;;;;;;;12.27;88.93;101126.69;5012921;28;20037;-44
2023/05/18 07:08:41;;;;;;;21.17;6.00;;;;;;;12.33;88.86;101120.50;5013096;28;20033;-44
2023/05/18 07:11:08;;;;;;;15.68;5.65;;;;;;;12.10;89.77;101121.78;5013226;28;20076;-44
2023/05/18 07:13:34;;;;;;;10.82;4.95;;;;;;;12.28;89.15;101128.38;5013193;28;20053;-44
2023/05/18 07:16:00;;;;;;;13.68;5.43;;;;;;;12.30;89.01;101121.75;5012774;28;20545;-44
2023/05/18 07:18:27;;;;;;;18.23;6.07;;;;;;;12.22;89.63;101123.84;5008747;28;20140;-44
2023/05/18 07:20:53;;;;;;;14.43;6.18;;;;;;;12.41;88.64;101123.78;4993432;28;20030;-43
2023/05/18 07:23:19;;;;;;;17.55;5.97;;;;;;;12.47;88.47;101114.03;4993582;28;20050;-43
2023/05/18 07:25:46;;;;;;;12.82;4.93;;;;;;;12.56;87.78;101115.47;4993069;28;20030;-46
2023/05/18 07:28:12;;;;;;;16.00;5.80;;;;;;;12.37;88.71;101122.53;5008466;28;20140;-44
2023/05/18 07:30:38;;;;;;;13.40;5.47;;;;;;;12.45;88.23;101123.38;5013653;28;20655;-44
2023/05/18 07:33:04;;;;;;;17.23;6.45;;;;;;;12.40;88.54;101119.44;5013185;28;20033;-47
2023/05/18 07:35:31;;;;;;;13.20;5.88;;;;;;;12.41;88.62;101120.25;5013129;28;20375;-44
2023/05/18 07:37:57;;;;;;;16.30;6.35;;;;;;;12.36;89.17;101110.16;5013104;28;20036;-43
2023/05/18 07:40:23;;;;;;;16.65;6.35;;;;;;;12.52;88.42;101118.78;5013124;28;20025;-43
2023/05/18 07:42:50;;;;;;;15.80;6.32;;;;;;;12.53;87.67;101109.69;5012732;28;20474;-42
2023/05/18 07:45:16;;;;;;;15.32;6.00;;;;;;;12.55;87.52;101118.38;5012578;28;20068;-45
2023/05/18 07:47:42;;;;;;;15.40;6.38;;;;;;;12.36;88.01;101118.22;5012803;28;20022;-43
2023/05/18 07:50:09;;;;;;;12.50;6.13;;;;;;;12.51;87.67;101123.34;5012524;28;20053;-45
2023/05/18 07:52:35;;;;;;;11.32;6.07;;;;;;;12.59;87.20;101122.25;5012772;28;20092;-44
2023/05/18 07:55:02;;;;;;;19.52;6.28;;;;;;;12.42;87.81;101127.28;5012236;28;20049;-44
2023/05/18 07:57:29;;;;;;;10.27;5.22;;;;;;;12.58;87.17;101128.69;5012469;28;20026;-47
2023/05/18 07:59:56;;;;;;;13.05;6.28;;;;;;;12.49;87.29;101124.56;5012442;28;20088;-44
2023/05/18 08:02:22;;;;;;;15.00;6.25;;;;;;;12.50;87.44;101120.88;5012023;28;20491;-44
2023/05/18 08:04:48;;;;;;;19.17;6.60;;;;;;;12.53;87.42;101121.25;5011636;28;20525;-44
2023/05/18 08:07:17;;;;;;;11.25;6.30;;;;;;;12.49;87.52;101119.19;5012142;28;20442;-43
2023/05/18 08:09:43;;;;;;;12.50;6.60;;;;;;;12.46;87.71;101119.63;5011287;28;20032;-45
2023/05/18 08:12:09;;;;;;;12.77;6.95;;;;;;;12.42;88.09;101114.69;5012044;28;20049;-43
2023/05/18 08:14:36;;;;;;;12.02;6.35;;;;;;;12.42;88.37;101109.31;5011605;28;20030;-43
2023/05/18 08:17:03;;;;;;;14.48;6.28;;;;;;;12.39;88.80;101107.06;5012157;28;20045;-43
2023/05/18 08:19:29;;;;;;;9.05;6.30;;;;;;;12.43;88.78;101110.13;5011608;28;20050;-45
2023/05/18 08:21:56;;;;;;;13.25;6.20;;;;;;;12.51;88.21;101103.72;4992560;28;20474;-43
2023/05/18 08:24:22;;;;;;;17.92;5.97;;;;;;;12.56;87.70;101104.72;4975065;28;20035;-43
2023/05/18 08:26:48;;;;;;;12.88;5.72;;;;;;;12.56;87.77;101107.41;4992485;28;20030;-43
2023/05/18 08:29:15;;;;;;;13.13;6.28;;;;;;;12.56;87.90;101099.38;4992505;28;20030;-43
2023/05/18 08:31:41;;;;;;;14.95;6.88;;;;;;;12.53;87.89;101102.47;4992246;28;20057;-44
2023/05/18 08:34:07;;;;;;;14.57;6.97;;;;;;;12.58;87.48;101099.97;5011892;28;20029;-44
2023/05/18 08:36:35;;;;;;;14.73;6.82;;;;;;;12.52;88.20;101087.38;5011928;28;20033;-44
2023/05/18 08:39:02;;;;;;;12.07;5.90;;;;;;;12.62;87.15;101097.69;5011946;28;20476;-42
2023/05/18 08:42:06;;;;;;;12.18;5.30;;;;;;;12.62;87.15;101089.63;5012178;28;20033;-45
2023/05/18 08:45:14;;;;;;;11.05;6.07;;;;;;;12.39;88.09;101088.28;5011767;28;20030;-45
2023/05/18 08:47:41;;;;;;;12.48;6.40;;;;;;;12.56;87.26;101082.44;4989803;28;20046;-43
2023/05/18 08:50:12;;;;;;;14.38;6.22;;;;;;;12.52;86.70;101081.19;4993552;28;20594;-43
2023/05/18 08:52:46;;;;;;;12.98;6.20;;;;;;;12.54;87.11;101087.16;5009486;28;20580;-43
2023/05/18 08:55:16;;;;;;;13.50;5.90;;;;;;;12.54;86.88;101073.75;5009302;28;20105;-43
2023/05/18 08:57:45;;;;;;;14.18;5.95;;;;;;;12.50;87.37;101080.59;5009411;28;20041;-44
2023/05/18 09:00:12;;;;;;;11.05;6.05;;;;;;;12.56;86.89;101082.44;5009507;28;20026;-44
2023/05/18 09:02:40;;;;;;;15.32;5.65;;;;;;;12.46;87.10;101076.69;5009260;28;20044;-43
2023/05/18 09:05:07;;;;;;;16.98;6.50;;;;;;;12.43;87.42;101072.53;5009263;28;20117;-44
2023/05/18 09:07:34;;;;;;;16.10;6.30;;;;;;;12.47;87.50;101078.31;5009135;28;20034;-43
2023/05/18 09:10:01;;;;;;;13.02;6.05;;;;;;;12.35;87.90;101078.97;4994930;28;20034;-43
2023/05/18 09:12:27;;;;;;;14.60;5.40;;;;;;;12.49;87.64;101076.25;4989790;28;20384;-44
2023/05/18 09:14:54;;;;;;;12.73;6.03;;;;;;;12.30;88.27;101075.28;4988464;28;20037;-45
2023/05/18 09:17:22;;;;;;;15.75;5.65;;;;;;;12.39;88.59;101071.34;4991343;28;20030;-43
2023/05/18 09:19:48;;;;;;;15.77;5.93;;;;;;;12.28;88.94;101074.69;5011130;28;20081;-43
2023/05/18 09:22:15;;;;;;;13.75;5.43;;;;;;;12.26;88.95;101074.88;5011240;28;20040;-43
2023/05/18 09:24:41;;;;;;;18.17;6.50;;;;;;;12.33;88.52;101062.28;5010898;28;20022;-43
2023/05/18 09:27:07;;;;;;;12.25;6.03;;;;;;;12.35;88.19;101064.75;5011298;28;20383;-44
2023/05/18 09:29:34;;;;;;;13.57;5.82;;;;;;;12.37;88.25;101066.16;5011312;28;20018;-43
2023/05/18 09:32:03;;;;;;;14.25;6.15;;;;;;;12.51;87.21;101068.81;5012582;28;20022;-47
2023/05/18 09:34:41;;;;;;;17.45;6.82;;;;;;;12.49;87.09;101065.50;4999755;28;20069;-43
2023/05/18 09:37:08;;;;;;;16.05;5.90;;;;;;;12.49;87.39;101065.50;4995455;28;20411;-44
2023/05/18 09:39:35;;;;;;;11.40;5.30;;;;;;;12.30;88.07;101067.22;4995258;28;20022;-43
2023/05/18 09:42:05;;;;;;;10.82;5.60;;;;;;;12.26;87.97;101069.50;4995497;28;20101;-44
2023/05/18 09:44:34;;;;;;;16.23;6.22;;;;;;;12.06;88.22;101074.94;4995045;28;20050;-43
2023/05/18 09:47:01;;;;;;;10.35;5.20;;;;;;;12.22;87.88;101064.81;5012992;28;20437;-44
2023/05/18 09:49:30;;;;;;;13.30;5.32;;;;;;;12.11;88.27;101069.78;5014658;28;20083;-43
2023/05/18 09:52:00;;;;;;;13.23;5.70;;;;;;;12.02;88.27;101076.38;5033251;28;20036;-46
2023/05/18 09:54:26;;;;;;;15.38;5.03;;;;;;;12.04;87.76;101076.16;5034189;28;20090;-45
2023/05/18 09:56:53;;;;;;;12.02;4.70;;;;;;;12.05;87.82;101072.47;5034507;28;20037;-44
2023/05/18 09:59:19;;;;;;;10.90;4.97;;;;;;;12.03;87.94;101072.66;5034268;28;20088;-43
2023/05/18 10:02:04;;;;;;;12.38;6.10;;;;;;;11.99;88.72;101071.44;5034186;28;20033;-43
2023/05/18 10:04:41;;;;;;;6.50;4.87;;;;;;;11.91;89.09;101073.53;5034029;28;20109;-45
2023/05/18 10:07:12;;;;;;;13.63;5.18;;;;;;;12.05;88.73;101077.84;5034371;28;20025;-43
2023/05/18 10:09:44;;;;;;;17.30;5.65;;;;;;;12.10;88.14;101067.28;5021436;28;20112;-43
2023/05/18 10:12:14;;;;;;;14.98;5.38;;;;;;;12.07;88.50;101057.81;5014737;28;20072;-44
2023/05/18 10:14:43;;;;;;;11.27;5.25;;;;;;;12.12;88.11;101062.53;5014839;28;20049;-45
2023/05/18 10:17:13;;;;;;;16.63;5.55;;;;;;;12.06;88.02;101061.53;5014869;28;20381;-45
2023/05/18 10:19:41;;;;;;;15.27;5.68;;;;;;;11.83;89.14;101061.16;5014082;28;20046;-44
2023/05/18 10:22:08;;;;;;;13.32;5.95;;;;;;;11.84;89.65;101066.31;5008316;28;20061;-46
2023/05/18 10:24:38;;;;;;;15.25;5.53;;;;;;;11.83;90.22;101061.16;4994374;28;20105;-44
2023/05/18 10:27:09;;;;;;;12.77;5.20;;;;;;;11.84;90.13;101058.28;4995950;28;20498;-43
2023/05/18 10:29:36;;;;;;;12.80;5.68;;;;;;;11.80;90.13;101061.53;5012254;28;20037;-43
2023/05/18 10:32:10;;;;;;;14.98;6.28;;;;;;;11.79;90.42;101067.94;5013693;28;20478;-43
2023/05/18 10:34:39;;;;;;;15.98;6.03;;;;;;;11.84;90.59;101063.63;5002973;28;20368;-45
2023/05/18 10:37:06;;;;;;;12.25;6.53;;;;;;;11.69;91.24;101059.50;5013699;28;20026;-43
2023/05/18 10:39:36;;;;;;;10.93;5.20;;;;;;;11.63;91.81;101050.44;5013212;28;20045;-43
2023/05/18 10:42:03;;;;;;;16.08;6.90;;;;;;;11.68;91.60;101056.00;5013441;28;20032;-45
2023/05/18 10:44:30;;;;;;;12.88;6.10;;;;;;;11.65;91.52;101056.41;5012958;28;20041;-43
2023/05/18 10:46:57;;;;;;;10.43;5.95;;;;;;;11.74;90.97;101063.19;5013192;28;20053;-43
2023/05/18 10:49:26;;;;;;;11.02;6.18;;;;;;;11.81;90.18;101061.34;5013672;28;20109;-44
2023/05/18 10:51:54;;;;;;;13.50;6.30;;;;;;;11.71;90.24;101060.91;5015063;28;20030;-43
2023/05/18 10:54:23;;;;;;;16.20;6.63;;;;;;;11.75;90.64;101056.81;4996893;28;20096;-43
2023/05/18 10:56:52;;;;;;;13.35;6.50;;;;;;;11.71;91.14;101058.25;5013159;28;20025;-45
2023/05/18 10:59:22;;;;;;;9.45;5.60;;;;;;;11.64;91.10;101068.97;5013074;28;20100;-44
2023/05/18 11:01:52;;;;;;;9.57;5.10;;;;;;;11.64;90.76;101060.13;4986324;28;20061;-45
2023/05/18 11:04:31;;;;;;;9.00;4.93;;;;;;;11.61;90.99;101061.38;5006359;28;20029;-43
2023/05/18 11:07:01;;;;;;;9.35;4.80;;;;;;;11.55;91.48;101064.06;5012530;28;20059;-42
2023/05/18 11:09:31;;;;;;;12.45;5.20;;;;;;;11.66;91.18;101066.09;5012636;28;20038;-43
2023/05/18 11:11:58;;;;;;;13.48;5.47;;;;;;;11.49;92.12;101062.16;5012844;28;20091;-43
2023/05/18 11:14:27;;;;;;;11.80;5.35;;;;;;;11.64;91.55;101052.88;5012838;28;20021;-43
2023/05/18 11:16:53;;;;;;;14.15;4.60;;;;;;;11.78;90.50;101064.44;5013116;28;20092;-43
2023/05/18 11:19:25;;;;;;;10.05;5.47;;;;;;;11.55;91.39;101066.75;5012438;28;20068;-46
2023/05/18 11:21:53;;;;;;;11.60;4.85;;;;;;;11.65;91.70;101067.13;5012357;28;20096;-43
2023/05/18 11:24:30;;;;;;;14.38;4.93;;;;;;;11.75;91.04;101070.22;4993208;28;20060;-44